MBS International Airport
KMBS : now visible

Airfield :











YOU CAN JOIN US ON...

 
LOGIN :

Register | Disclaimer

   EN    FR    IT 

 









Legend :    VFR   Marginal VFR   IFR   Intensive IFR   Very Intensive IFR
Visi :
Ceiling :
>= 8 km
>= 3000ft
5 to 8 km
1000 to 3000 ft
1500m to 5 km
500 to 1000 ft
800 to 1500m
200 to 500 ft
< 800m
< 200 ft
Symbols :   Thunderstorms  Fog  Heavy snow  Heavy precipitations  Wind > 20 kt






- Airport Elevation : 668 ft
- IATA code : MBS


KMBS - MBS International

CURRENT METAR :
  • 080753Z AUTO 18010KT 10SM CLR 00/M05 A3013 RMK AO2 SLP209 T00001050

EXPIRED METARs :
  • 080653Z AUTO 19008KT 10SM FEW075 M01/M05 A3015 RMK AO2 SLP217 T10061050
  • 080553Z AUTO 18008KT 10SM CLR M01/M05 A3017 RMK AO2 SLP226 T10061050 11006 21017 58019

TAF KMBS
Valid from the 08 at 06:00 until the 09 at 06:00 UTC


080535Z 0806/0906 18011KT P6SM BKN100
FM081000 20013KT P6SM OVC150
FM081500 22015G25KT P6SM OVC015
FM090000 20008KT 5SM -SHRA BR OVC008



MET'MAP, your aeronautical weather chart ! - Copyright ORBIFLY December 2007 - Disclaimer

ORBIFLY MET'MAP TEAM :

Programming & Development : Alexandra Zaïnal
Concept & original design : Baudouin d'Aumeries
Assistance for programming : Marc-Olivier Méhu
Technical & hardware support : Manuel Goepfert

Contact : metmap@orbifly.com




SOURCES & CREDITS :

   NOAA       Earth
Advisory